KMIE

Delaware County Regional Airport

Muncie, Indiana, USA
METAR KMIE 201853Z 29017G32KT 10SM FEW065 BKN085 16/M01 A2979 RMK AO2 PK WND 27037/1809 SLP084 T01561006
Observed Flight Rules
Oct-20 @ 18:53 UTC (27 minutes ago) Visual Flight Rules
Wind Visibility Clouds
290° at 17 knots
 Gusting to 32 knots
10 miles
  • Few at 6,500' AGL
  • Broken at 8,500' AGL
Temperatures Readings
Current 16°C / 61°F
Dewpoint -1°C / 30°F
Humidity 31%
Altimeter 29.79" Hg
Pressure 1008.4 hPa
Elevation 285
METAR KMIE 201853Z 29017G32KT 10SM FEW065 BKN085 16/M01 A2979 RMK AO2 PK WND 27037/1809 SLP084 T01561006
Observed Flight Rules
Oct-20 @ 18:53 UTC
(27 minutes ago)
VFR
Wind Visibility
290° at 17 knots
 Gusting to 32 knots
10 miles
Clouds
  • Few at 6,500' AGL
  • Broken at 8,500' AGL
Temperature Dewpoint
16°C / 61°F -1°C / 30°F
Humidity Altimeter Pressure
31% 29.79" Hg 1008.4 hPa